Time;durP1;ratioP1;P1;durP2;ratioP2;P2;SDS_P1;SDS_P2;PMS_P1;PMS_P2;Temp;Humidity;BMP_temperature;BMP_pressure;BME280_temperature;BME280_humidity;BME280_pressure;Samples;Min_cycle;Max_cycle;Signal;HPM_P1;HPM_P2
2022/07/14 00:01:42;;;;;;;68.23;5.50;;;23.70;10.10;;;;;;5081748;28;20482;-83
2022/07/14 00:04:11;;;;;;;68.57;5.97;;;23.70;10.20;;;;;;5080756;28;20849;-83
2022/07/14 00:06:37;;;;;;;68.53;5.87;;;23.70;10.10;;;;;;5079847;28;20467;-82
2022/07/14 00:09:04;;;;;;;69.30;6.00;;;23.70;10.90;;;;;;5079615;28;20832;-82
2022/07/14 00:11:30;;;;;;;69.63;6.00;;;23.60;11.20;;;;;;5079798;28;20719;-82
2022/07/14 00:13:58;;;;;;;74.03;5.47;;;23.50;13.70;;;;;;5080455;28;20426;-82
2022/07/14 00:16:24;;;;;;;69.20;6.00;;;23.50;14.40;;;;;;5081301;28;20257;-83
2022/07/14 00:18:50;;;;;;;69.47;5.87;;;23.40;16.20;;;;;;5079900;28;20584;-83
2022/07/14 00:21:16;;;;;;;68.57;5.63;;;23.40;16.70;;;;;;5080448;28;20930;-83
2022/07/14 00:23:43;;;;;;;70.87;5.50;;;23.40;17.90;;;;;;5079563;28;20464;-82
2022/07/14 00:26:10;;;;;;;69.70;5.23;;;23.50;17.30;;;;;;5080285;28;20402;-82
2022/07/14 00:28:36;;;;;;;70.90;5.37;;;23.40;18.80;;;;;;5081566;28;20437;-82
2022/07/14 00:31:06;;;;;;;68.27;5.03;;;23.40;18.30;;;;;;5081232;28;20410;-82
2022/07/14 00:33:32;;;;;;;68.97;4.60;;;23.30;20.50;;;;;;5079918;28;20409;-82
2022/07/14 00:35:58;;;;;;;68.87;4.53;;;23.20;21.10;;;;;;5080944;28;20442;-82
2022/07/14 00:38:24;;;;;;;70.53;5.70;;;23.20;24.00;;;;;;5080537;28;20433;-82
2022/07/14 00:40:50;;;;;;;68.37;5.37;;;23.00;27.60;;;;;;5078918;28;20417;-82
2022/07/14 00:43:16;;;;;;;69.27;5.53;;;23.00;28.00;;;;;;5079020;28;20485;-82
2022/07/14 00:45:42;;;;;;;70.60;4.90;;;23.00;27.40;;;;;;5080989;28;20639;-82
2022/07/14 00:48:07;;;;;;;72.67;5.90;;;23.00;27.50;;;;;;5080915;28;20188;-82
2022/07/14 00:50:33;;;;;;;70.30;5.87;;;23.10;26.90;;;;;;5081675;28;20402;-83
2022/07/14 00:53:07;;;;;;;70.23;5.97;;;23.10;26.90;;;;;;5079696;28;20164;-83
2022/07/14 00:55:32;;;;;;;69.90;7.27;;;23.10;27.70;;;;;;5081132;28;20422;-83
2022/07/14 00:57:58;;;;;;;69.33;6.23;;;23.10;27.20;;;;;;5080973;28;20426;-83
2022/07/14 01:00:23;;;;;;;71.53;8.33;;;23.10;28.30;;;;;;5081049;28;20508;-83
2022/07/14 01:02:49;;;;;;;70.00;7.90;;;23.00;29.40;;;;;;5080800;28;20220;-83
2022/07/14 01:05:15;;;;;;;69.50;8.00;;;23.00;29.70;;;;;;5080555;28;20167;-83
2022/07/14 01:07:41;;;;;;;70.90;9.87;;;23.00;30.10;;;;;;5080737;28;20263;-82
2022/07/14 01:10:07;;;;;;;69.37;10.80;;;23.00;31.30;;;;;;5079679;28;20179;-82
2022/07/14 01:12:34;;;;;;;72.80;14.83;;;23.00;31.50;;;;;;5080746;28;20163;-82
2022/07/14 01:15:00;;;;;;;73.17;15.23;;;22.90;34.40;;;;;;5080597;28;20442;-82
2022/07/14 01:17:25;;;;;;;73.47;15.03;;;22.90;34.90;;;;;;5079149;28;20431;-83
2022/07/14 01:19:51;;;;;;;72.30;17.40;;;22.90;35.60;;;;;;5080204;28;20202;-83
2022/07/14 01:22:17;;;;;;;75.10;20.27;;;22.80;36.60;;;;;;5079964;28;20157;-83
2022/07/14 01:24:43;;;;;;;74.70;21.07;;;22.70;38.60;;;;;;5080126;28;20164;-83
2022/07/14 01:27:08;;;;;;;75.70;21.77;;;22.70;39.90;;;;;;5080190;28;20180;-83
2022/07/14 01:29:34;;;;;;;77.87;24.73;;;22.70;40.90;;;;;;5079236;28;20933;-83
2022/07/14 01:32:00;;;;;;;77.17;20.97;;;22.80;39.90;;;;;;5079668;28;20247;-83
2022/07/14 01:34:27;;;;;;;74.40;22.87;;;22.80;40.10;;;;;;5080439;28;20234;-82
2022/07/14 01:36:53;;;;;;;74.97;21.97;;;22.80;38.90;;;;;;5079130;28;20183;-82
2022/07/14 01:39:19;;;;;;;74.57;21.57;;;22.80;40.50;;;;;;5079769;28;20474;-82
2022/07/14 01:41:46;;;;;;;75.13;18.37;;;22.80;41.70;;;;;;5079709;28;20482;-82
2022/07/14 01:44:12;;;;;;;76.30;20.97;;;22.70;42.20;;;;;;5079454;28;20438;-83
2022/07/14 01:46:38;;;;;;;73.47;19.60;;;22.70;42.80;;;;;;5079331;28;20429;-82
2022/07/14 01:49:05;;;;;;;75.53;19.40;;;22.70;43.20;;;;;;5079256;28;20507;-82
2022/07/14 01:51:31;;;;;;;74.40;17.90;;;22.70;43.70;;;;;;5079235;28;20166;-83
2022/07/14 01:53:56;;;;;;;76.73;17.20;;;22.70;44.50;;;;;;5078713;28;20434;-82
2022/07/14 01:56:22;;;;;;;75.00;19.70;;;22.70;45.80;;;;;;5078986;28;20449;-82
2022/07/14 01:58:48;;;;;;;72.20;17.70;;;22.60;46.50;;;;;;5079039;28;20179;-82
2022/07/14 02:04:01;;;;;;;74.77;16.20;;;22.50;50.10;;;;;;5079898;28;20186;-82
2022/07/14 02:06:27;;;;;;;72.80;14.70;;;22.50;50.30;;;;;;5079427;28;20406;-82
2022/07/14 02:08:53;;;;;;;71.40;13.47;;;22.50;49.40;;;;;;5079091;28;20419;-82
2022/07/14 02:14:04;;;;;;;76.30;15.30;;;22.50;50.00;;;;;;5079180;28;20267;-82
2022/07/14 02:16:30;;;;;;;73.00;13.50;;;22.40;51.50;;;;;;5077154;28;20453;-83
2022/07/14 02:18:57;;;;;;;72.87;13.00;;;22.40;53.00;;;;;;5077042;28;20568;-82
2022/07/14 02:21:23;;;;;;;76.00;13.20;;;22.30;52.60;;;;;;5078546;28;20405;-82
2022/07/14 02:23:49;;;;;;;72.60;12.47;;;22.40;52.20;;;;;;5079884;28;20406;-83
2022/07/14 02:26:14;;;;;;;69.50;11.73;;;22.30;53.30;;;;;;5078847;28;20403;-83
2022/07/14 02:28:41;;;;;;;72.40;11.67;;;22.30;53.10;;;;;;5078137;28;20188;-83
2022/07/14 02:31:07;;;;;;;73.10;11.20;;;22.30;52.80;;;;;;5077696;28;20168;-82
2022/07/14 02:33:33;;;;;;;74.10;9.70;;;22.30;53.50;;;;;;5078764;28;20428;-82
2022/07/14 02:35:59;;;;;;;73.30;9.90;;;22.20;54.00;;;;;;5078623;28;20449;-83
2022/07/14 02:38:24;;;;;;;71.17;9.70;;;22.20;55.90;;;;;;5077722;28;20328;-83
2022/07/14 02:40:50;;;;;;;70.17;9.37;;;22.20;57.00;;;;;;5078992;28;20160;-83
2022/07/14 02:43:16;;;;;;;69.80;9.30;;;22.10;57.90;;;;;;5078634;28;20539;-83
2022/07/14 02:45:42;;;;;;;70.60;9.00;;;22.10;58.80;;;;;;5078543;28;20398;-83
2022/07/14 02:48:08;;;;;;;72.10;9.60;;;22.10;57.50;;;;;;5078907;28;20659;-82
2022/07/14 02:50:36;;;;;;;71.83;8.97;;;22.10;57.20;;;;;;5078503;28;20634;-82
2022/07/14 02:53:02;;;;;;;76.50;8.00;;;22.10;57.90;;;;;;5077108;28;20434;-82
2022/07/14 02:55:28;;;;;;;74.90;8.23;;;22.00;58.30;;;;;;5078694;28;20438;-83
2022/07/14 02:57:54;;;;;;;70.60;7.17;;;22.00;58.50;;;;;;5078130;28;20422;-82
2022/07/14 03:00:20;;;;;;;69.17;7.77;;;22.00;59.10;;;;;;5078714;28;20406;-83
2022/07/14 03:02:46;;;;;;;73.67;7.37;;;22.00;59.40;;;;;;5078732;28;20156;-82
2022/07/14 03:05:11;;;;;;;71.40;7.53;;;22.10;58.50;;;;;;5078596;28;20398;-82
2022/07/14 03:07:37;;;;;;;72.00;7.47;;;22.00;59.60;;;;;;5077295;28;20578;-82
2022/07/14 03:10:04;;;;;;;69.93;7.27;;;22.00;59.50;;;;;;5078482;28;20191;-82
2022/07/14 03:12:29;;;;;;;74.10;7.50;;;22.00;59.60;;;;;;5077243;28;20168;-82
2022/07/14 03:14:55;;;;;;;70.17;6.60;;;21.90;60.10;;;;;;5076819;28;20449;-82
2022/07/14 03:17:21;;;;;;;69.67;7.70;;;21.90;61.60;;;;;;5078311;28;20184;-83
2022/07/14 03:19:47;;;;;;;76.50;6.87;;;21.90;61.20;;;;;;5078632;28;20654;-82
2022/07/14 03:22:12;;;;;;;77.10;8.20;;;21.80;62.90;;;;;;5078650;28;20164;-82
2022/07/14 03:24:38;;;;;;;69.00;6.43;;;21.80;62.90;;;;;;5076523;28;20417;-82
2022/07/14 03:27:04;;;;;;;72.37;6.63;;;21.70;64.50;;;;;;5077768;28;20176;-83
2022/07/14 03:29:30;;;;;;;69.33;6.27;;;21.70;65.80;;;;;;5078113;28;20157;-82
2022/07/14 03:31:55;;;;;;;73.37;7.77;;;21.70;63.70;;;;;;5078636;28;20819;-82
2022/07/14 03:34:21;;;;;;;68.37;6.47;;;21.70;64.00;;;;;;5078429;28;20165;-82
2022/07/14 03:36:47;;;;;;;73.40;6.17;;;21.80;63.30;;;;;;5078210;28;20233;-82
2022/07/14 03:39:13;;;;;;;69.77;6.77;;;21.80;64.10;;;;;;5078042;28;20164;-82
2022/07/14 03:41:39;;;;;;;78.30;6.90;;;21.70;63.80;;;;;;5078449;28;20159;-83
2022/07/14 03:44:05;;;;;;;71.60;7.20;;;21.70;65.10;;;;;;5078056;28;20434;-82
2022/07/14 03:46:31;;;;;;;73.97;8.80;;;21.60;65.20;;;;;;5076702;28;20421;-82
2022/07/14 03:48:56;;;;;;;72.27;9.13;;;21.60;65.60;;;;;;5076484;28;20663;-82
2022/07/14 03:51:22;;;;;;;71.10;8.53;;;21.50;67.80;;;;;;5082156;28;20647;-83
2022/07/14 03:53:48;;;;;;;70.40;7.77;;;21.60;68.40;;;;;;5084238;28;20243;-80
2022/07/14 03:56:13;;;;;;;73.40;9.10;;;21.60;68.20;;;;;;5081971;28;20192;-83
2022/07/14 03:58:39;;;;;;;73.80;7.90;;;21.50;70.40;;;;;;5080831;28;20192;-83
2022/07/14 04:01:05;;;;;;;71.00;12.30;;;21.50;70.60;;;;;;5081433;28;20232;-83
2022/07/14 04:03:31;;;;;;;77.70;13.53;;;21.40;72.90;;;;;;5080577;28;20176;-82
2022/07/14 04:05:57;;;;;;;77.90;13.50;;;21.40;73.30;;;;;;5081972;28;20170;-83
2022/07/14 04:08:23;;;;;;;73.10;13.13;;;21.40;73.20;;;;;;5081763;28;20460;-82
2022/07/14 04:10:48;;;;;;;79.60;14.03;;;21.40;72.50;;;;;;5080083;28;20627;-83
2022/07/14 04:13:15;;;;;;;75.47;11.80;;;21.50;72.00;;;;;;5081331;28;20794;-83
2022/07/14 04:15:41;;;;;;;80.93;14.27;;;21.40;71.40;;;;;;5081824;28;20196;-83
2022/07/14 04:18:07;;;;;;;71.67;15.33;;;21.40;72.20;;;;;;5080116;28;20857;-82
2022/07/14 04:20:33;;;;;;;78.13;16.40;;;21.30;74.00;;;;;;5080116;28;20407;-82
2022/07/14 04:22:59;;;;;;;75.07;12.17;;;21.40;71.70;;;;;;5081706;28;20825;-82
2022/07/14 04:25:25;;;;;;;73.43;11.53;;;21.40;71.00;;;;;;5081028;28;20174;-82
2022/07/14 04:27:51;;;;;;;74.73;14.87;;;21.40;71.60;;;;;;5081658;28;20426;-82
2022/07/14 04:30:17;;;;;;;76.13;18.40;;;21.30;73.00;;;;;;5081521;28;20489;-83
2022/07/14 04:32:43;;;;;;;73.60;16.60;;;21.30;73.90;;;;;;5081047;28;20164;-83
2022/07/14 04:35:09;;;;;;;75.80;21.73;;;21.20;74.70;;;;;;5079302;28;20971;-83
2022/07/14 04:37:35;;;;;;;76.03;23.87;;;21.30;75.40;;;;;;5080930;28;20574;-82
2022/07/14 04:40:02;;;;;;;75.83;22.43;;;21.20;76.10;;;;;;5081043;28;20457;-82
2022/07/14 04:42:28;;;;;;;75.30;18.80;;;21.30;76.00;;;;;;5080809;28;20391;-82
2022/07/14 04:44:54;;;;;;;84.53;23.57;;;21.30;75.20;;;;;;5081152;28;20407;-82
2022/07/14 04:47:20;;;;;;;80.13;26.73;;;21.30;74.60;;;;;;5080553;28;20605;-82
2022/07/14 04:52:30;;;;;;;79.67;23.73;;;21.20;79.00;;;;;;5080961;28;20163;-82
2022/07/14 04:54:56;;;;;;;78.60;25.77;;;21.20;77.60;;;;;;5080516;28;20450;-82
2022/07/14 04:57:22;;;;;;;79.63;22.73;;;21.20;77.10;;;;;;5080295;28;20190;-82
2022/07/14 04:59:47;;;;;;;74.97;21.33;;;21.30;75.80;;;;;;5079384;28;20893;-82
2022/07/14 05:02:14;;;;;;;75.87;17.40;;;21.30;74.40;;;;;;5077892;28;20172;-82
2022/07/14 05:04:40;;;;;;;81.93;25.63;;;21.20;76.50;;;;;;5080948;28;20430;-82
2022/07/14 05:07:06;;;;;;;73.87;22.20;;;21.20;76.10;;;;;;5079882;28;20421;-82
2022/07/14 05:09:33;;;;;;;74.23;22.27;;;21.20;76.60;;;;;;5080378;28;20394;-82
2022/07/14 05:12:00;;;;;;;80.57;27.27;;;21.10;77.40;;;;;;5078631;28;20420;-82
2022/07/14 05:14:27;;;;;;;75.77;26.17;;;21.10;79.00;;;;;;5078377;28;20835;-81
2022/07/14 05:16:52;;;;;;;78.63;28.27;;;21.20;78.20;;;;;;5079946;28;20940;-82
2022/07/14 05:19:18;;;;;;;74.53;25.30;;;21.20;77.70;;;;;;5079454;28;20414;-82
2022/07/14 05:21:44;;;;;;;75.67;21.57;;;21.20;76.50;;;;;;5084958;28;20643;-82
2022/07/14 05:24:11;;;;;;;75.30;23.77;;;21.20;76.70;;;;;;5083988;28;20406;-82
2022/07/14 05:26:37;;;;;;;77.93;29.90;;;21.20;77.20;;;;;;5083534;28;20928;-82
2022/07/14 05:29:03;;;;;;;77.93;28.87;;;21.20;79.40;;;;;;5079038;28;20449;-82
2022/07/14 05:31:29;;;;;;;78.37;22.70;;;21.20;79.50;;;;;;5079256;28;20402;-83
2022/07/14 05:33:56;;;;;;;76.27;30.17;;;21.20;79.30;;;;;;5080238;28;20410;-83
2022/07/14 05:36:23;;;;;;;82.57;29.17;;;21.20;78.90;;;;;;5078964;28;20206;-83
2022/07/14 05:38:49;;;;;;;83.60;29.50;;;21.10;79.80;;;;;;5080537;28;20476;-82
2022/07/14 05:41:15;;;;;;;79.03;29.53;;;21.10;81.80;;;;;;5080307;28;20406;-83
2022/07/14 05:43:41;;;;;;;78.63;29.00;;;21.20;79.70;;;;;;5078908;28;20477;-82
2022/07/14 05:46:09;;;;;;;77.97;28.10;;;21.20;78.70;;;;;;5080188;28;20230;-82
2022/07/14 05:48:35;;;;;;;78.73;26.47;;;21.20;78.70;;;;;;5080266;28;20473;-83
2022/07/14 05:51:09;;;;;;;80.97;27.07;;;21.20;78.60;;;;;;5079928;28;20932;-83
2022/07/14 05:53:36;;;;;;;80.60;24.57;;;21.20;78.10;;;;;;5080443;28;20400;-83
2022/07/14 05:56:04;;;;;;;81.23;27.57;;;21.30;76.50;;;;;;5080338;28;20822;-83
2022/07/14 05:58:30;;;;;;;79.70;34.23;;;21.30;77.50;;;;;;5080265;28;20414;-82
2022/07/14 06:00:56;;;;;;;80.20;34.80;;;21.20;80.50;;;;;;5080177;28;20487;-83
2022/07/14 06:03:21;;;;;;;81.57;29.17;;;21.20;84.10;;;;;;5078517;28;20410;-83
2022/07/14 06:05:47;;;;;;;82.70;35.73;;;21.30;88.00;;;;;;5079577;28;20417;-83
2022/07/14 06:08:13;;;;;;;85.80;25.77;;;21.30;90.00;;;;;;5079777;28;20215;-83
2022/07/14 06:10:39;;;;;;;79.17;23.70;;;21.30;91.10;;;;;;5079369;28;20249;-83
2022/07/14 06:13:05;;;;;;;73.53;23.47;;;21.30;91.30;;;;;;5079091;28;20250;-83
2022/07/14 06:15:30;;;;;;;75.00;18.40;;;21.10;92.70;;;;;;5079469;28;20485;-83
2022/07/14 06:17:56;;;;;;;74.43;16.27;;;21.00;95.00;;;;;;5079456;28;20180;-83
2022/07/14 06:20:22;;;;;;;74.13;17.93;;;21.00;95.40;;;;;;5079573;28;20896;-83
2022/07/14 06:22:49;;;;;;;81.33;26.37;;;21.00;94.70;;;;;;5079361;28;20193;-82
2022/07/14 06:25:15;;;;;;;74.40;20.17;;;21.00;94.60;;;;;;5079439;28;20426;-82
2022/07/14 06:27:41;;;;;;;74.50;19.77;;;20.80;95.40;;;;;;5079268;28;20430;-83
2022/07/14 06:30:08;;;;;;;76.00;21.17;;;20.60;98.50;;;;;;5079916;28;20401;-83
2022/07/14 06:32:36;;;;;;;72.50;16.67;;;20.70;97.90;;;;;;5078916;28;20569;-82
2022/07/14 06:35:02;;;;;;;76.47;16.70;;;20.70;98.40;;;;;;5077454;28;20437;-82
2022/07/14 06:37:28;;;;;;;75.07;18.57;;;20.80;98.10;;;;;;5078675;28;20444;-82
2022/07/14 06:39:54;;;;;;;73.13;14.37;;;20.90;96.90;;;;;;5077414;28;20412;-82
2022/07/14 06:42:20;;;;;;;70.90;13.43;;;21.00;95.80;;;;;;5079365;28;20163;-82
2022/07/14 06:44:48;;;;;;;77.23;12.13;;;21.10;94.80;;;;;;5078679;28;20495;-82
2022/07/14 06:47:14;;;;;;;75.40;15.53;;;21.10;94.30;;;;;;5079372;28;20195;-82
2022/07/14 06:49:39;;;;;;;75.90;16.90;;;21.30;92.10;;;;;;5078883;28;20394;-82
2022/07/14 06:52:06;;;;;;;77.60;20.07;;;21.30;91.20;;;;;;5077327;28;20235;-82
2022/07/14 06:54:32;;;;;;;76.97;16.97;;;21.20;89.50;;;;;;5078481;28;20157;-82
2022/07/14 06:56:57;;;;;;;79.40;12.77;;;21.10;91.80;;;;;;5082232;28;20536;-79
2022/07/14 06:59:23;;;;;;;71.40;12.30;;;21.00;92.60;;;;;;5083768;28;20175;-81
2022/07/14 07:01:51;;;;;;;75.73;17.93;;;21.00;94.30;;;;;;5079436;28;20163;-82
2022/07/14 07:04:17;;;;;;;79.57;21.33;;;21.10;92.60;;;;;;5079258;28;20175;-82
2022/07/14 07:06:45;;;;;;;71.03;13.63;;;21.20;91.00;;;;;;5079062;28;20761;-82
2022/07/14 07:09:13;;;;;;;72.17;16.10;;;21.20;91.90;;;;;;5078628;28;20195;-82
2022/07/14 07:11:40;;;;;;;76.90;20.00;;;21.20;92.10;;;;;;5077196;28;20417;-82
2022/07/14 07:14:06;;;;;;;73.93;13.20;;;21.30;90.80;;;;;;5078080;28;20416;-82
2022/07/14 07:16:31;;;;;;;77.00;18.37;;;21.20;91.90;;;;;;5077065;28;20446;-82
2022/07/14 07:18:57;;;;;;;76.40;21.43;;;21.30;91.90;;;;;;5079086;28;20425;-82
2022/07/14 07:21:23;;;;;;;78.07;20.47;;;21.30;88.80;;;;;;5077714;28;20625;-82
2022/07/14 07:23:50;;;;;;;76.73;23.90;;;21.30;89.60;;;;;;5078392;28;20171;-82
2022/07/14 07:26:16;;;;;;;75.63;21.00;;;21.40;88.10;;;;;;5081538;28;20164;-83
2022/07/14 07:28:43;;;;;;;80.63;22.40;;;21.30;89.20;;;;;;5082480;28;20425;-84
2022/07/14 07:31:08;;;;;;;78.77;24.30;;;21.50;86.50;;;;;;5082153;28;20463;-82
2022/07/14 07:33:34;;;;;;;78.90;26.57;;;21.50;84.90;;;;;;5082141;28;20500;-82
2022/07/14 07:36:00;;;;;;;75.07;19.20;;;21.40;84.40;;;;;;5082049;28;20954;-82
2022/07/14 07:38:27;;;;;;;83.10;23.60;;;21.40;88.70;;;;;;5081307;28;20184;-82
2022/07/14 07:40:53;;;;;;;79.77;20.30;;;21.30;86.20;;;;;;5082045;28;20424;-82
2022/07/14 07:43:22;;;;;;;77.77;22.00;;;21.50;85.50;;;;;;5082176;28;20398;-82
2022/07/14 07:45:49;;;;;;;78.40;23.40;;;21.70;84.70;;;;;;5081496;28;20164;-82
2022/07/14 07:48:15;;;;;;;82.73;24.43;;;21.70;77.70;;;;;;5081596;28;20429;-82
2022/07/14 07:50:42;;;;;;;80.03;27.27;;;21.80;78.80;;;;;;5081542;28;20436;-82
2022/07/14 07:53:09;;;;;;;78.40;25.63;;;21.90;74.40;;;;;;5082011;28;20928;-82
2022/07/14 07:55:34;;;;;;;81.53;24.10;;;21.90;73.10;;;;;;5081935;28;20442;-82
2022/07/14 07:58:01;;;;;;;81.47;26.40;;;21.90;67.10;;;;;;5080143;28;20437;-82
2022/07/14 08:00:27;;;;;;;79.47;24.10;;;21.70;72.30;;;;;;5082337;28;20217;-81
2022/07/14 08:02:53;;;;;;;80.77;27.30;;;21.80;73.10;;;;;;5081794;28;20434;-81
2022/07/14 08:05:22;;;;;;;80.70;27.27;;;22.00;76.40;;;;;;5080422;28;20422;-82
2022/07/14 08:07:48;;;;;;;76.30;16.00;;;22.20;65.80;;;;;;5081396;28;20422;-82
2022/07/14 08:10:14;;;;;;;72.53;6.60;;;22.30;60.50;;;;;;5081195;28;20410;-82
2022/07/14 08:12:41;;;;;;;71.73;7.27;;;22.40;51.00;;;;;;5079925;28;20422;-81
2022/07/14 08:15:07;;;;;;;74.90;6.07;;;22.30;51.20;;;;;;5081132;28;20462;-82
2022/07/14 08:17:34;;;;;;;75.73;5.53;;;22.40;49.10;;;;;;5079738;28;20513;-82
2022/07/14 08:20:00;;;;;;;72.47;4.17;;;22.50;50.20;;;;;;5081509;28;20428;-82
2022/07/14 08:22:27;;;;;;;69.43;4.50;;;22.50;38.10;;;;;;5081231;28;20489;-82
2022/07/14 08:24:55;;;;;;;72.70;4.57;;;22.40;36.20;;;;;;5081126;28;20171;-82
2022/07/14 08:27:22;;;;;;;70.80;4.33;;;22.40;37.90;;;;;;5080831;28;20418;-85
2022/07/14 08:29:48;;;;;;;68.87;4.10;;;22.50;39.40;;;;;;5082500;28;20418;-82
2022/07/14 08:32:14;;;;;;;70.07;4.10;;;22.50;32.80;;;;;;5081143;28;20564;-82
2022/07/14 08:34:40;;;;;;;68.37;5.60;;;22.40;30.80;;;;;;5081135;28;20437;-82
2022/07/14 08:37:06;;;;;;;72.00;4.80;;;22.40;29.30;;;;;;5148452;22;20250;-81
2022/07/14 08:39:33;;;;;;;71.40;5.77;;;22.50;29.30;;;;;;5070958;28;20169;-82
2022/07/14 08:42:03;;;;;;;73.00;7.30;;;22.40;26.90;;;;;;5070145;28;20475;-81
2022/07/14 08:44:29;;;;;;;71.63;7.47;;;22.40;28.50;;;;;;5069938;28;20395;-82
2022/07/14 08:46:56;;;;;;;78.47;11.63;;;22.50;25.20;;;;;;5069632;28;20426;-82
2022/07/14 08:49:22;;;;;;;71.87;13.33;;;22.50;20.80;;;;;;5068807;28;20952;-82
2022/07/14 08:51:49;;;;;;;74.60;13.03;;;22.70;20.80;;;;;;5068997;28;21001;-82
2022/07/14 08:54:16;;;;;;;76.30;18.43;;;22.70;18.10;;;;;;5069111;28;20466;-82
2022/07/14 08:56:42;;;;;;;76.50;13.23;;;22.90;16.10;;;;;;5069303;28;20482;-82
2022/07/14 08:59:09;;;;;;;73.20;12.10;;;23.10;16.50;;;;;;5068794;28;20411;-82
2022/07/14 09:01:36;;;;;;;73.27;8.37;;;23.20;12.50;;;;;;5068872;28;20395;-82
2022/07/14 09:04:02;;;;;;;74.27;8.70;;;23.10;7.00;;;;;;5068508;28;20395;-82
2022/07/14 09:07:00;;;;;;;72.53;4.83;;;23.20;6.00;;;;;;5069524;28;20402;-82
2022/07/14 09:09:30;;;;;;;68.30;3.60;;;23.20;5.80;;;;;;5035552;28;20411;-82
2022/07/14 09:12:00;;;;;;;69.17;3.70;;;23.30;1.00;;;;;;5068618;28;20427;-82
2022/07/14 09:14:28;;;;;;;69.23;4.00;;;23.40;1.00;;;;;;5067324;28;20410;-82
2022/07/14 09:17:14;;;;;;;69.47;3.77;;;23.50;1.00;;;;;;5068774;28;20494;-82
2022/07/14 09:20:09;;;;;;;68.70;3.33;;;23.50;1.00;;;;;;5069248;28;20744;-82
2022/07/14 09:22:39;;;;;;;73.20;3.90;;;23.40;1.00;;;;;;5069084;28;20384;-82
2022/07/14 09:25:10;;;;;;;67.70;3.63;;;23.40;1.00;;;;;;5069173;28;20821;-82
2022/07/14 09:27:37;;;;;;;71.87;3.40;;;23.50;1.00;;;;;;5068865;28;20422;-82
2022/07/14 09:30:05;;;;;;;68.10;2.70;;;23.60;1.00;;;;;;5067581;28;20399;-82
2022/07/14 09:32:59;;;;;;;69.50;3.27;;;23.70;1.00;;;;;;5068363;28;20428;-82
2022/07/14 09:35:26;;;;;;;76.10;3.50;;;23.80;1.00;;;;;;5067130;28;20434;-81
2022/07/14 09:37:54;;;;;;;74.33;2.97;;;24.00;1.00;;;;;;5082610;28;20430;-82
2022/07/14 09:40:30;;;;;;;70.93;3.00;;;24.20;1.00;;;;;;5088168;28;20494;-82
2022/07/14 09:43:01;;;;;;;67.87;3.00;;;24.30;1.00;;;;;;5087380;28;20386;-81
2022/07/14 09:45:29;;;;;;;70.43;2.87;;;24.40;1.00;;;;;;5087778;28;20470;-81
2022/07/14 09:47:57;;;;;;;68.20;3.20;;;24.40;1.00;;;;;;5086077;28;20942;-81
2022/07/14 09:50:50;;;;;;;68.87;4.67;;;24.50;1.00;;;;;;5087030;28;20407;-81
2022/07/14 09:53:24;;;;;;;70.80;6.30;;;24.60;1.00;;;;;;5086233;28;20383;-82
2022/07/14 09:56:04;;;;;;;68.90;6.90;;;24.70;1.00;;;;;;5087975;28;20466;-82
2022/07/14 09:58:43;;;;;;;71.50;6.70;;;24.60;1.00;;;;;;5087864;28;20447;-82
2022/07/14 10:01:12;;;;;;;67.57;5.03;;;24.60;1.00;;;;;;5087800;28;20418;-82
2022/07/14 10:03:40;;;;;;;69.77;6.03;;;24.60;1.00;;;;;;5087820;28;20399;-82
2022/07/14 10:06:06;;;;;;;70.30;6.00;;;24.50;1.00;;;;;;5087721;28;20447;-82
2022/07/14 10:08:35;;;;;;;71.37;5.80;;;24.30;1.00;;;;;;5069428;28;20430;-82
2022/07/14 10:11:03;;;;;;;72.37;6.33;;;24.30;1.00;;;;;;5087728;28;20398;-82
2022/07/14 10:13:30;;;;;;;72.33;6.17;;;24.10;1.00;;;;;;5069775;28;20411;-82
2022/07/14 10:15:56;;;;;;;70.40;5.00;;;24.30;1.00;;;;;;5088015;28;20426;-82
2022/07/14 10:18:24;;;;;;;72.33;3.90;;;24.40;1.00;;;;;;5069925;28;20849;-82
2022/07/14 10:20:52;;;;;;;74.27;3.30;;;24.50;1.00;;;;;;5086980;28;20408;-82
2022/07/14 10:23:19;;;;;;;73.40;3.60;;;24.70;1.00;;;;;;5088571;28;20481;-82
2022/07/14 10:25:54;;;;;;;68.60;3.50;;;24.80;1.00;;;;;;5087859;28;20446;-81
2022/07/14 10:28:20;;;;;;;75.13;2.97;;;24.80;1.00;;;;;;5087265;28;20472;-82
2022/07/14 10:30:53;;;;;;;69.33;2.53;;;24.90;1.00;;;;;;5087886;28;20971;-82
2022/07/14 10:33:28;;;;;;;71.50;2.97;;;25.00;1.00;;;;;;5088524;28;20413;-82
2022/07/14 10:36:17;;;;;;;68.97;2.93;;;24.90;1.00;;;;;;5087621;28;20398;-82
2022/07/14 10:39:05;;;;;;;69.57;2.30;;;24.80;1.00;;;;;;5087938;28;20437;-82
2022/07/14 10:41:34;;;;;;;73.40;2.47;;;24.80;1.00;;;;;;5088091;28;20387;-81
2022/07/14 10:44:27;;;;;;;71.70;3.30;;;24.80;1.00;;;;;;5068990;28;20818;-82
2022/07/14 10:47:10;;;;;;;69.97;3.70;;;25.30;1.00;;;;;;5083228;28;20447;-82
2022/07/14 10:50:08;;;;;;;69.47;3.00;;;25.40;1.00;;;;;;5088155;28;20464;-82
2022/07/14 10:52:57;;;;;;;72.07;3.80;;;25.40;1.00;;;;;;5087668;28;20923;-81
2022/07/14 10:55:35;;;;;;;70.30;3.07;;;25.60;1.00;;;;;;5072901;28;20408;-82
2022/07/14 10:58:01;;;;;;;66.43;2.00;;;25.80;1.00;;;;;;5087419;28;20945;-82
2022/07/14 11:00:39;;;;;;;72.00;2.57;;;25.60;1.00;;;;;;5072223;28;20494;-81
2022/07/14 11:03:43;;;;;;;67.17;2.10;;;25.50;1.00;;;;;;5090589;28;20466;-82
2022/07/14 11:06:09;;;;;;;66.30;2.53;;;25.60;1.00;;;;;;5091057;28;20444;-82
2022/07/14 11:08:44;;;;;;;65.90;2.23;;;25.70;1.00;;;;;;5090576;28;20429;-82
2022/07/14 11:11:18;;;;;;;68.57;2.77;;;25.80;1.00;;;;;;5090106;28;20226;-82
2022/07/14 11:14:10;;;;;;;67.90;2.67;;;25.90;1.00;;;;;;5090092;28;20423;-81
2022/07/14 11:16:48;;;;;;;72.23;3.23;;;25.70;1.00;;;;;;5090505;28;20414;-82
2022/07/14 11:19:22;;;;;;;71.60;2.33;;;25.50;1.00;;;;;;5089980;28;20401;-82
2022/07/14 11:22:10;;;;;;;70.70;2.87;;;25.40;1.00;;;;;;5090547;28;20433;-82
2022/07/14 11:24:43;;;;;;;70.10;3.37;;;25.60;1.00;;;;;;5091093;28;20393;-82
2022/07/14 11:27:35;;;;;;;73.67;2.93;;;25.90;1.00;;;;;;5089834;28;20452;-81
2022/07/14 11:30:30;;;;;;;73.03;3.00;;;26.20;1.00;;;;;;5091346;28;20397;-82
2022/07/14 11:33:00;;;;;;;70.27;3.00;;;26.50;1.00;;;;;;5072535;28;20438;-82
2022/07/14 11:38:30;;;;;;;70.73;3.17;;;26.40;1.00;;;;;;5090840;28;20440;-82
2022/07/14 11:40:56;;;;;;;70.30;3.40;;;26.50;1.00;;;;;;5090117;28;20419;-81
2022/07/14 11:43:31;;;;;;;67.67;2.97;;;26.50;1.00;;;;;;5089428;28;20485;-82
2022/07/14 11:46:09;;;;;;;68.47;2.63;;;26.40;1.00;;;;;;5088594;28;20813;-82
2022/07/14 11:48:38;;;;;;;71.93;2.87;;;26.30;1.00;;;;;;5072973;28;20449;-82
2022/07/14 11:51:08;;;;;;;68.27;2.70;;;26.70;1.00;;;;;;5090507;28;20399;-82
2022/07/14 11:53:35;;;;;;;72.30;2.50;;;26.80;1.00;;;;;;5090337;28;20390;-82
2022/07/14 11:56:03;;;;;;;70.10;2.83;;;26.90;1.00;;;;;;5070999;28;20418;-82
2022/07/14 11:58:30;;;;;;;68.07;2.97;;;26.90;1.00;;;;;;5088170;28;20430;-82
2022/07/14 12:00:57;;;;;;;68.00;3.30;;;26.80;1.00;;;;;;5070398;28;20414;-81
2022/07/14 12:03:23;;;;;;;68.10;3.13;;;26.90;1.00;;;;;;5087454;28;20432;-82
2022/07/14 12:05:54;;;;;;;68.30;3.13;;;27.00;1.00;;;;;;5069246;28;20454;-82
2022/07/14 12:08:25;;;;;;;67.57;2.50;;;26.90;1.00;;;;;;5071177;28;20483;-82
2022/07/14 12:10:52;;;;;;;67.90;2.70;;;27.20;1.00;;;;;;5088212;28;20394;-82
2022/07/14 12:13:18;;;;;;;70.77;3.00;;;27.30;1.00;;;;;;5088379;28;20407;-81
2022/07/14 12:15:46;;;;;;;67.10;2.57;;;27.30;1.00;;;;;;5087275;28;20410;-82
2022/07/14 12:18:12;;;;;;;66.97;2.77;;;27.10;1.00;;;;;;5088031;28;20433;-82
2022/07/14 12:20:43;;;;;;;70.80;3.20;;;27.10;1.00;;;;;;5087691;28;20555;-81
2022/07/14 12:23:09;;;;;;;69.43;2.80;;;27.10;1.00;;;;;;5070003;28;20519;-81
2022/07/14 12:25:40;;;;;;;74.03;3.37;;;27.10;1.00;;;;;;5089229;28;20453;-81
2022/07/14 12:28:09;;;;;;;67.70;3.50;;;27.30;1.00;;;;;;5070581;28;20438;-82
2022/07/14 12:30:51;;;;;;;67.50;2.47;;;27.40;1.00;;;;;;5087011;28;20469;-82
2022/07/14 12:33:28;;;;;;;68.60;2.43;;;27.60;1.00;;;;;;5068773;28;20424;-82
2022/07/14 12:35:59;;;;;;;71.13;2.73;;;27.70;1.00;;;;;;5069982;28;20402;-81
2022/07/14 12:38:27;;;;;;;68.27;3.13;;;27.70;1.00;;;;;;5068990;28;20449;-81
2022/07/14 12:40:59;;;;;;;67.60;3.20;;;27.90;1.00;;;;;;5088864;28;20410;-82
2022/07/14 12:43:25;;;;;;;66.30;2.70;;;27.70;1.00;;;;;;5088195;28;20386;-82
2022/07/14 12:46:02;;;;;;;68.57;2.67;;;27.90;1.00;;;;;;5085339;28;20450;-82
2022/07/14 12:48:32;;;;;;;69.60;3.47;;;27.70;1.00;;;;;;5087284;28;20483;-82
2022/07/14 12:51:19;;;;;;;67.50;3.60;;;27.80;1.00;;;;;;5084755;28;20395;-82
2022/07/14 12:54:05;;;;;;;69.60;3.10;;;27.70;1.00;;;;;;5086822;28;20394;-81